Troy, South Dakota
Current Conditions -  °F | °C
As of 2:53 PM on Friday 24 Oct 2014 (Local Time) from KATY Reporting Station
Clear Clear  
Wind Chill: 73°   Ceiling: Unl
Heat Index: 73°   Visibility: 10mi
Dew Point: 38°   Wind: 7mph
Humidity: 28%   Direction: 300°WNW
Pressure: 29.88"   Gusts: NA
Location:  45.0202°N, 96.8218°W
Report Text: KATY 241953Z AUTO 30006KT 10SM CLR 23/03 A2988 RMK AO2 SLP115 T02280033
Loading
Personal Weather Stations






























Interactive Weather Map
Tropical Storm Tracking
New forecast layout! Learn more

10-Day Weather Forecast

Advertisements
Track Severe Weather on mobile